Time;durP1;ratioP1;P1;durP2;ratioP2;P2;SDS_P1;SDS_P2;PMS_P1;PMS_P2;Temp;Humidity;BMP_temperature;BMP_pressure;BME280_temperature;BME280_humidity;BME280_pressure;Samples;Min_cycle;Max_cycle;Signal;HPM_P1;HPM_P2
2022/05/17 00:00:44;;;;;;;16.15;5.25;;;;;;;16.75;65.01;101947.00;4957382;28;20047;-74
2022/05/17 00:03:10;;;;;;;13.77;5.50;;;;;;;16.77;65.32;101955.84;4954093;28;20028;-74
2022/05/17 00:05:35;;;;;;;8.85;4.63;;;;;;;16.68;64.33;101959.22;4963934;28;20085;-74
2022/05/17 00:08:01;;;;;;;13.23;5.32;;;;;;;16.61;64.10;101954.72;4966651;28;20050;-74
2022/05/17 00:10:27;;;;;;;13.35;5.18;;;;;;;16.54;64.92;101958.09;4967442;28;20502;-74
2022/05/17 00:12:56;;;;;;;12.27;5.55;;;;;;;16.51;64.82;101948.41;4959771;28;20027;-74
2022/05/17 00:15:22;;;;;;;11.50;5.45;;;;;;;16.50;64.79;101957.13;4971224;28;20023;-74
2022/05/17 00:17:49;;;;;;;14.27;4.88;;;;;;;16.37;64.33;101951.66;4958166;28;20023;-74
2022/05/17 00:20:15;;;;;;;12.90;5.65;;;;;;;16.37;65.90;101955.16;4971452;28;20466;-74
2022/05/17 00:22:41;;;;;;;11.60;5.63;;;;;;;16.37;65.42;101952.53;4967654;28;20023;-74
2022/05/17 00:25:08;;;;;;;12.55;5.93;;;;;;;16.36;66.28;101942.00;4971256;28;20019;-74
2022/05/17 00:27:34;;;;;;;16.45;6.22;;;;;;;16.34;66.09;101939.34;4957174;28;20034;-74
2022/05/17 00:29:59;;;;;;;15.40;6.30;;;;;;;16.35;66.40;101935.81;4970004;28;20034;-74
2022/05/17 00:32:24;;;;;;;13.07;5.80;;;;;;;16.38;65.69;101942.88;4950414;28;20038;-74
2022/05/17 00:34:50;;;;;;;13.07;6.13;;;;;;;16.31;66.29;101931.41;4969885;28;20030;-74
2022/05/17 00:37:16;;;;;;;13.85;6.00;;;;;;;16.29;66.60;101928.75;4953524;28;20461;-74
2022/05/17 00:39:41;;;;;;;11.07;4.82;;;;;;;16.27;64.98;101935.69;4969178;28;20530;-74
2022/05/17 00:42:07;;;;;;;10.77;4.90;;;;;;;16.16;64.81;101940.78;4962435;28;20118;-73
2022/05/17 00:44:45;;;;;;;10.75;4.53;;;;;;;16.06;65.20;101936.22;4964897;28;20030;-74
2022/05/17 00:47:27;;;;;;;10.93;5.70;;;;;;;16.01;65.56;101942.25;4945450;28;20398;-73
2022/05/17 00:50:01;;;;;;;11.63;5.70;;;;;;;15.97;66.03;101933.41;4966450;28;20031;-74
2022/05/17 00:52:44;;;;;;;15.25;5.68;;;;;;;15.99;66.93;101939.59;4950568;28;20128;-73
2022/05/17 00:55:16;;;;;;;12.02;5.65;;;;;;;15.95;67.42;101935.13;4950032;28;20034;-74
2022/05/17 00:57:58;;;;;;;10.13;5.40;;;;;;;16.03;66.82;101932.63;4949923;28;20117;-74
2022/05/17 01:00:24;;;;;;;12.32;5.47;;;;;;;15.97;67.79;101929.03;4968546;28;20033;-74
2022/05/17 01:02:54;;;;;;;14.90;6.60;;;;;;;15.97;68.43;101934.31;4953303;28;20482;-74
2022/05/17 01:05:23;;;;;;;12.13;5.32;;;;;;;15.91;67.25;101934.16;4962469;28;20051;-74
2022/05/17 01:07:53;;;;;;;11.10;6.07;;;;;;;15.92;67.68;101933.31;4969550;28;20041;-74
2022/05/17 01:10:19;;;;;;;14.60;5.57;;;;;;;15.86;67.71;101934.94;4966626;28;20031;-74
2022/05/17 01:14:57;;;;;;;11.88;5.70;;;;;;;15.82;67.76;101929.63;4965057;28;20401;-74
2022/05/17 01:15:30;;;;;;;15.85;6.63;;;;;;;15.82;67.79;101929.63;4973219;28;20409;-74
2022/05/17 01:17:55;;;;;;;16.85;8.13;;;;;;;15.80;68.25;101922.56;4961122;28;20033;-74
2022/05/17 01:20:20;;;;;;;16.10;6.70;;;;;;;15.84;68.32;101921.75;4974118;28;20475;-74
2022/05/17 01:22:46;;;;;;;15.05;7.18;;;;;;;15.89;67.96;101920.13;4959513;28;20094;-74
2022/05/17 01:25:11;;;;;;;13.80;6.50;;;;;;;15.84;68.35;101915.63;4974048;28;20027;-74
2022/05/17 01:27:42;;;;;;;15.88;6.65;;;;;;;15.79;68.86;101918.19;4968721;28;20030;-74
2022/05/17 01:30:18;;;;;;;15.88;7.50;;;;;;;15.74;68.93;101918.06;4974078;28;20031;-74
2022/05/17 01:32:43;;;;;;;15.23;6.70;;;;;;;15.75;69.26;101914.56;4961822;28;20023;-74
2022/05/17 01:35:09;;;;;;;14.57;6.90;;;;;;;15.72;69.42;101922.38;4966689;28;20082;-74
2022/05/17 01:37:34;;;;;;;14.43;6.03;;;;;;;15.75;69.09;101927.69;4972362;28;20019;-74
2022/05/17 01:40:00;;;;;;;15.00;6.78;;;;;;;15.70;69.45;101921.47;4956776;28;20082;-74
2022/05/17 01:42:25;;;;;;;14.05;6.90;;;;;;;15.72;69.66;101921.50;4968409;28;20478;-74
2022/05/17 01:44:51;;;;;;;16.45;6.93;;;;;;;15.72;69.92;101927.63;4965059;28;20482;-74
2022/05/17 01:47:16;;;;;;;13.90;7.07;;;;;;;15.75;69.76;101918.94;4971023;28;20033;-74
2022/05/17 01:49:41;;;;;;;13.93;6.40;;;;;;;15.75;69.44;101927.69;4973772;28;20034;-74
2022/05/17 01:52:07;;;;;;;14.13;6.90;;;;;;;15.74;69.89;101925.03;4963186;28;20038;-74
2022/05/17 01:54:32;;;;;;;14.45;6.90;;;;;;;15.75;69.54;101922.44;4965314;28;20490;-74
2022/05/17 01:56:58;;;;;;;10.73;6.07;;;;;;;15.70;69.83;101925.81;4973639;28;20498;-74
2022/05/17 01:59:23;;;;;;;13.45;6.65;;;;;;;15.68;70.05;101927.56;4965105;28;20037;-74
2022/05/17 02:01:48;;;;;;;12.55;6.30;;;;;;;15.62;70.28;101921.31;4959496;28;20105;-74
2022/05/17 02:04:14;;;;;;;10.15;5.85;;;;;;;15.63;69.56;101924.84;4961618;28;20051;-74
2022/05/17 02:06:39;;;;;;;16.88;6.57;;;;;;;15.64;69.59;101924.88;4973202;28;20073;-74
2022/05/17 02:09:04;;;;;;;18.27;7.28;;;;;;;15.65;70.37;101926.63;4954210;28;20037;-74
2022/05/17 02:11:30;;;;;;;12.65;7.15;;;;;;;15.65;70.47;101923.13;4954962;28;20042;-74
2022/05/17 02:13:55;;;;;;;15.63;7.13;;;;;;;15.68;71.13;101925.78;4972403;28;20038;-74
2022/05/17 02:16:21;;;;;;;15.27;6.90;;;;;;;15.72;70.75;101924.13;4960748;28;20030;-74
2022/05/17 02:18:46;;;;;;;12.23;6.15;;;;;;;15.72;71.65;101930.25;4972682;28;20401;-73
2022/05/17 02:21:11;;;;;;;20.67;6.85;;;;;;;15.75;71.13;101927.69;4961097;28;20027;-73
2022/05/17 02:23:37;;;;;;;15.57;6.47;;;;;;;15.74;71.99;101922.41;4966564;28;20030;-74
2022/05/17 02:26:02;;;;;;;13.13;6.53;;;;;;;15.76;71.94;101924.22;4973100;28;20046;-74
2022/05/17 02:28:27;;;;;;;15.57;6.65;;;;;;;15.77;71.75;101926.00;4968425;28;20077;-74
2022/05/17 02:30:53;;;;;;;12.43;6.07;;;;;;;15.82;71.77;101924.38;4972980;28;20149;-74
2022/05/17 02:33:18;;;;;;;15.00;7.05;;;;;;;15.82;72.27;101929.63;4968644;28;20033;-74
2022/05/17 02:35:43;;;;;;;13.88;7.15;;;;;;;15.81;72.32;101930.50;4965261;28;20042;-74
2022/05/17 02:38:09;;;;;;;15.32;7.20;;;;;;;15.81;72.33;101929.59;4968595;28;20025;-74
2022/05/17 02:40:36;;;;;;;15.93;7.50;;;;;;;15.80;72.28;101930.44;4972688;28;20030;-74
2022/05/17 02:43:02;;;;;;;13.13;6.82;;;;;;;15.81;72.66;101929.59;4941918;28;20492;-74
2022/05/17 02:45:28;;;;;;;13.75;7.10;;;;;;;15.86;72.67;101934.94;4952764;28;20502;-74
2022/05/17 02:47:53;;;;;;;13.40;7.60;;;;;;;15.84;72.21;101932.28;4972595;28;20082;-74
2022/05/17 02:50:20;;;;;;;15.50;7.28;;;;;;;15.83;72.14;101930.53;4964361;28;20035;-74
2022/05/17 02:52:45;;;;;;;12.98;6.68;;;;;;;15.84;72.20;101941.91;4956679;28;20082;-74
2022/05/17 02:55:11;;;;;;;13.98;6.90;;;;;;;15.84;71.92;101942.78;4969707;28;20026;-74
2022/05/17 02:57:37;;;;;;;15.18;7.15;;;;;;;15.82;71.70;101942.75;4961239;28;20027;-74
2022/05/17 03:00:06;;;;;;;16.17;7.20;;;;;;;15.81;71.89;101943.63;4970665;28;20027;-74
2022/05/17 03:02:31;;;;;;;18.27;7.35;;;;;;;15.83;71.81;101946.28;4960052;28;20031;-74
2022/05/17 03:04:56;;;;;;;13.20;6.65;;;;;;;15.81;71.62;101945.34;4970967;28;20053;-74
2022/05/17 03:07:22;;;;;;;13.05;7.30;;;;;;;15.76;71.95;101942.63;4969665;28;20038;-74
2022/05/17 03:09:47;;;;;;;12.52;6.95;;;;;;;15.75;72.26;101940.84;4970597;28;20026;-74
2022/05/17 03:12:13;;;;;;;16.02;7.47;;;;;;;15.73;71.64;101947.81;4967934;28;20482;-74
2022/05/17 03:14:38;;;;;;;12.43;7.03;;;;;;;15.74;71.53;101946.06;4972188;28;20556;-74
2022/05/17 03:17:15;;;;;;;17.20;7.55;;;;;;;15.70;71.74;101944.22;4957537;28;20030;-74
2022/05/17 03:19:41;;;;;;;13.68;7.07;;;;;;;15.61;72.71;101951.09;4967352;28;20028;-74
2022/05/17 03:22:07;;;;;;;15.52;6.88;;;;;;;15.62;72.08;101942.31;4960687;28;20035;-74
2022/05/17 03:24:33;;;;;;;13.07;6.82;;;;;;;15.60;72.34;101946.66;4957732;28;20254;-74
2022/05/17 03:26:58;;;;;;;14.75;7.15;;;;;;;15.58;72.54;101942.22;4972158;28;20108;-74
2022/05/17 03:29:24;;;;;;;12.65;6.72;;;;;;;15.57;72.68;101943.06;4951192;28;20481;-74
2022/05/17 03:31:50;;;;;;;18.65;6.78;;;;;;;15.53;73.17;101946.53;4966024;28;20023;-74
2022/05/17 03:34:16;;;;;;;14.63;6.50;;;;;;;15.53;73.09;101951.78;4967625;28;20116;-74
2022/05/17 03:36:41;;;;;;;13.15;6.90;;;;;;;15.47;73.14;101948.16;4959505;28;20443;-74
2022/05/17 03:39:07;;;;;;;13.95;6.63;;;;;;;15.46;73.24;101946.38;4966726;28;20495;-74
2022/05/17 03:41:32;;;;;;;14.73;6.82;;;;;;;15.47;72.97;101945.53;4967492;28;20012;-74
2022/05/17 03:43:57;;;;;;;15.68;6.20;;;;;;;15.50;72.90;101946.44;4965702;28;20537;-74
2022/05/17 03:46:22;;;;;;;12.05;6.28;;;;;;;15.49;73.23;101945.56;4971677;28;20138;-74
2022/05/17 03:48:48;;;;;;;13.25;6.80;;;;;;;15.45;73.22;101942.00;4954136;28;20545;-74
2022/05/17 03:51:15;;;;;;;15.48;7.22;;;;;;;15.44;72.75;101941.97;4965319;28;20031;-74
2022/05/17 03:53:42;;;;;;;12.63;6.95;;;;;;;15.44;73.17;101952.47;4963493;28;20038;-74
2022/05/17 03:56:07;;;;;;;13.07;6.72;;;;;;;15.42;72.94;101941.91;4971966;28;20041;-74
2022/05/17 03:58:33;;;;;;;13.13;6.60;;;;;;;15.42;73.44;101944.53;4968801;28;20027;-74
2022/05/17 04:00:58;;;;;;;12.52;7.00;;;;;;;15.39;73.54;101949.72;4963531;28;20039;-74
2022/05/17 04:03:23;;;;;;;15.38;7.07;;;;;;;15.40;73.21;101948.88;4952635;28;20392;-74
2022/05/17 04:05:49;;;;;;;17.23;6.75;;;;;;;15.37;73.53;101951.44;4968795;28;20078;-74
2022/05/17 04:08:14;;;;;;;13.77;6.95;;;;;;;15.38;73.34;101953.22;4962308;28;20053;-74
2022/05/17 04:10:39;;;;;;;12.95;6.95;;;;;;;15.36;73.54;101949.66;4967712;28;20038;-74
2022/05/17 04:13:05;;;;;;;12.65;6.85;;;;;;;15.35;73.53;101947.00;4959914;28;20049;-74
2022/05/17 04:15:30;;;;;;;15.27;6.90;;;;;;;15.31;73.66;101956.56;4952621;28;20035;-74
2022/05/17 04:17:56;;;;;;;12.80;7.03;;;;;;;15.30;73.70;101954.78;4956968;28;20058;-74
2022/05/17 04:20:21;;;;;;;13.85;6.50;;;;;;;15.29;74.01;101966.13;4963884;28;20457;-74
2022/05/17 04:22:50;;;;;;;12.98;6.50;;;;;;;15.27;74.09;101966.09;4957025;28;20039;-74
2022/05/17 04:25:17;;;;;;;11.95;6.38;;;;;;;15.27;73.72;101965.22;4964806;28;20438;-74
2022/05/17 04:27:43;;;;;;;12.07;6.38;;;;;;;15.26;73.57;101963.44;4971476;28;20034;-74
2022/05/17 04:30:09;;;;;;;12.55;6.13;;;;;;;15.26;73.60;101964.31;4965391;28;20102;-74
2022/05/17 04:32:34;;;;;;;12.90;6.15;;;;;;;15.29;73.88;101971.38;4964855;28;20434;-74
2022/05/17 04:35:00;;;;;;;11.13;6.10;;;;;;;15.28;74.22;101972.25;4971159;28;20057;-74
2022/05/17 04:37:27;;;;;;;15.02;6.68;;;;;;;15.27;73.89;101967.84;4956211;28;20031;-74
2022/05/17 04:39:52;;;;;;;12.65;6.68;;;;;;;15.27;74.71;101971.34;4961112;28;20053;-74
2022/05/17 04:42:17;;;;;;;13.32;6.43;;;;;;;15.28;74.58;101967.88;4967117;28;20023;-74
2022/05/17 04:44:43;;;;;;;15.57;6.97;;;;;;;15.32;74.75;101971.44;4974926;28;20394;-74
2022/05/17 04:47:11;;;;;;;11.73;6.82;;;;;;;15.35;74.94;101968.91;4972768;28;20054;-74
2022/05/17 04:49:37;;;;;;;10.70;6.70;;;;;;;15.38;74.62;101971.59;4975027;28;20122;-74
2022/05/17 04:52:02;;;;;;;14.30;6.93;;;;;;;15.41;74.88;101974.28;4970704;28;20496;-74
2022/05/17 04:54:28;;;;;;;13.48;6.85;;;;;;;15.44;75.03;101968.22;4958284;28;20035;-74
2022/05/17 04:56:53;;;;;;;11.68;7.07;;;;;;;15.45;75.39;101976.13;4966286;28;20427;-74
2022/05/17 04:59:19;;;;;;;14.68;6.65;;;;;;;15.50;75.78;101977.94;4972752;28;20129;-74
2022/05/17 05:01:45;;;;;;;11.27;6.78;;;;;;;15.50;76.16;101980.56;4955745;28;20031;-74
2022/05/17 05:04:10;;;;;;;13.65;6.80;;;;;;;15.52;76.45;101977.13;4964690;28;20109;-74
2022/05/17 05:06:36;;;;;;;13.57;6.95;;;;;;;15.53;76.44;101985.94;4974614;28;20030;-74
2022/05/17 05:09:01;;;;;;;15.63;7.15;;;;;;;15.57;76.24;101991.28;4965182;28;20040;-74
2022/05/17 05:11:26;;;;;;;12.13;7.40;;;;;;;15.59;76.60;101988.69;4967713;28;20034;-74
2022/05/17 05:13:52;;;;;;;12.02;7.25;;;;;;;15.61;76.50;101989.59;4967805;28;20034;-74
2022/05/17 05:16:17;;;;;;;13.85;7.28;;;;;;;15.64;76.48;101989.66;4968817;28;20046;-74
2022/05/17 05:18:42;;;;;;;14.23;7.80;;;;;;;15.66;76.91;101987.94;4974528;28;20027;-74
2022/05/17 05:21:10;;;;;;;14.32;7.50;;;;;;;15.71;76.36;101990.66;4969213;28;20030;-74
2022/05/17 05:23:37;;;;;;;15.43;7.75;;;;;;;15.76;76.85;101997.78;4970956;28;20072;-74
2022/05/17 05:26:03;;;;;;;15.50;7.75;;;;;;;15.78;76.61;102001.38;4974200;28;20633;-74
2022/05/17 05:28:29;;;;;;;15.20;7.85;;;;;;;15.80;77.12;101999.69;4971235;28;20129;-74
2022/05/17 05:30:55;;;;;;;12.85;7.97;;;;;;;15.82;77.02;102011.09;4959291;28;20140;-74
2022/05/17 05:33:22;;;;;;;16.77;7.80;;;;;;;15.89;76.35;102003.31;4970877;28;20414;-74
2022/05/17 05:35:48;;;;;;;15.45;8.32;;;;;;;15.91;75.73;102012.16;4972557;28;20037;-74
2022/05/17 05:38:13;;;;;;;15.52;8.00;;;;;;;15.94;74.71;102017.47;4970218;28;20034;-74
2022/05/17 05:40:39;;;;;;;15.40;8.18;;;;;;;15.95;75.94;102013.97;4966638;28;20517;-74
2022/05/17 05:43:05;;;;;;;13.82;8.23;;;;;;;16.02;75.18;102020.22;4946869;28;20035;-74
2022/05/17 05:45:31;;;;;;;17.30;8.40;;;;;;;16.03;75.33;102024.63;4967671;28;20039;-74
2022/05/17 05:47:57;;;;;;;15.82;8.20;;;;;;;16.06;75.14;102022.97;4967562;28;20022;-74
2022/05/17 05:50:22;;;;;;;19.92;8.93;;;;;;;16.08;75.92;102026.50;4968793;28;20033;-74
2022/05/17 05:52:48;;;;;;;17.27;8.57;;;;;;;16.09;75.73;102023.03;4967103;28;20486;-74
2022/05/17 05:55:21;;;;;;;18.15;8.93;;;;;;;16.13;76.28;102031.84;4973694;28;20050;-74
2022/05/17 05:57:47;;;;;;;14.80;8.23;;;;;;;16.15;75.71;102025.78;4967584;28;20299;-74
2022/05/17 06:00:14;;;;;;;19.90;9.45;;;;;;;16.17;76.87;102025.81;4969875;28;20039;-74
2022/05/17 06:02:40;;;;;;;20.45;9.60;;;;;;;16.20;75.65;102031.13;4965477;28;20078;-74
2022/05/17 06:05:06;;;;;;;17.02;9.35;;;;;;;16.23;75.20;102022.41;4947483;28;20051;-74
2022/05/17 06:07:31;;;;;;;19.85;8.98;;;;;;;16.22;75.80;102018.91;4973663;28;20106;-74
2022/05/17 06:09:57;;;;;;;17.70;9.13;;;;;;;16.26;75.45;102015.44;4959077;28;20051;-74
2022/05/17 06:12:22;;;;;;;17.65;9.18;;;;;;;16.27;76.02;102021.63;4965533;28;20026;-74
2022/05/17 06:14:47;;;;;;;24.50;9.57;;;;;;;16.27;74.98;102017.22;4973483;28;20023;-74
2022/05/17 06:17:13;;;;;;;18.10;9.40;;;;;;;16.29;75.29;102020.78;4946752;28;20037;-74
2022/05/17 06:19:38;;;;;;;17.23;9.55;;;;;;;16.31;76.25;102020.81;4971106;28;20035;-74
2022/05/17 06:22:03;;;;;;;19.65;9.50;;;;;;;16.33;76.85;102029.63;4965291;28;20041;-74
2022/05/17 06:24:29;;;;;;;16.65;9.02;;;;;;;16.36;77.38;102034.94;4973348;28;20110;-74
2022/05/17 06:26:54;;;;;;;21.02;10.13;;;;;;;16.35;77.30;102025.25;4966065;28;20034;-74
2022/05/17 06:29:20;;;;;;;23.23;9.25;;;;;;;16.40;77.13;102034.13;4972873;28;20506;-74
2022/05/17 06:31:45;;;;;;;18.80;9.27;;;;;;;16.40;77.26;102034.13;4965995;28;20430;-74
2022/05/17 06:34:10;;;;;;;19.23;9.63;;;;;;;16.41;77.54;102035.00;4972779;28;20031;-74
2022/05/17 06:36:36;;;;;;;16.20;8.65;;;;;;;16.42;77.40;102027.13;4961185;28;20035;-74
2022/05/17 06:39:01;;;;;;;18.75;9.13;;;;;;;16.42;76.57;102032.41;4953257;28;20023;-74
2022/05/17 06:41:26;;;;;;;14.80;8.93;;;;;;;16.43;77.71;102028.91;4971532;28;20041;-74
2022/05/17 06:43:52;;;;;;;18.15;9.43;;;;;;;16.45;78.35;102042.09;4958665;28;20035;-74
2022/05/17 06:46:17;;;;;;;17.25;8.90;;;;;;;16.47;78.79;102051.81;4972377;28;20029;-74
2022/05/17 06:48:43;;;;;;;17.92;9.00;;;;;;;16.50;76.82;102054.50;4958492;28;20027;-74
2022/05/17 06:51:09;;;;;;;15.77;8.43;;;;;;;16.50;77.35;102054.50;4967966;28;20023;-74
2022/05/17 06:53:35;;;;;;;16.45;9.02;;;;;;;16.50;77.57;102057.13;4951082;28;20046;-74
2022/05/17 06:56:04;;;;;;;17.45;9.00;;;;;;;16.54;76.66;102057.16;4971591;28;20030;-74
2022/05/17 06:58:30;;;;;;;19.80;9.18;;;;;;;16.54;77.59;102057.16;4965609;28;20031;-74
2022/05/17 07:00:55;;;;;;;18.17;9.35;;;;;;;16.56;77.58;102055.47;4960736;28;20042;-74
2022/05/17 07:03:22;;;;;;;17.35;8.90;;;;;;;16.56;76.44;102058.97;4948090;28;20052;-74
2022/05/17 07:05:47;;;;;;;20.73;9.07;;;;;;;16.58;77.98;102065.13;4951937;28;20070;-74
2022/05/17 07:08:12;;;;;;;17.17;9.43;;;;;;;16.59;78.17;102063.41;4952395;28;20491;-74
2022/05/17 07:13:21;;;;;;;19.33;10.27;;;;;;;16.62;77.24;102060.84;4950973;28;20113;-74
2022/05/17 07:15:49;;;;;;;18.13;10.40;;;;;;;16.61;77.37;102062.59;4962729;28;20490;-74
2022/05/17 07:18:21;;;;;;;19.08;10.30;;;;;;;16.62;77.32;102063.47;4958984;28;20058;-74
2022/05/17 07:20:48;;;;;;;18.55;9.82;;;;;;;16.63;78.25;102066.13;4958193;28;20494;-74
2022/05/17 07:23:14;;;;;;;19.30;10.45;;;;;;;16.65;78.73;102066.16;4944322;28;20062;-74
2022/05/17 07:25:41;;;;;;;20.88;10.50;;;;;;;16.64;78.92;102067.91;4966648;28;20030;-74
2022/05/17 07:28:07;;;;;;;19.30;11.10;;;;;;;16.66;78.78;102066.19;4965206;28;20125;-74
2022/05/17 07:30:32;;;;;;;16.70;10.43;;;;;;;16.69;80.32;102071.50;4971890;28;20023;-74
2022/05/17 07:32:58;;;;;;;17.13;10.65;;;;;;;16.69;79.62;102073.25;4965879;28;20042;-73
2022/05/17 07:35:23;;;;;;;19.52;11.50;;;;;;;16.71;80.24;102073.28;4957480;28;20030;-73
2022/05/17 07:37:48;;;;;;;21.10;11.80;;;;;;;16.72;81.01;102078.56;4962557;28;20031;-73
2022/05/17 07:40:14;;;;;;;21.70;11.00;;;;;;;16.72;81.30;102062.78;4960075;28;20044;-73
2022/05/17 07:42:40;;;;;;;16.58;10.20;;;;;;;16.72;79.35;102049.63;4951687;28;20430;-73
2022/05/17 07:45:07;;;;;;;20.48;11.68;;;;;;;16.72;80.28;102054.88;4969410;28;20022;-73
2022/05/17 07:47:33;;;;;;;19.95;11.73;;;;;;;16.71;80.85;102050.47;4961139;28;20027;-73
2022/05/17 07:49:59;;;;;;;23.15;11.98;;;;;;;16.70;81.54;102056.59;4966425;28;20035;-73
2022/05/17 07:52:24;;;;;;;24.33;12.88;;;;;;;16.71;81.25;102065.38;4971688;28;20030;-73
2022/05/17 07:54:50;;;;;;;23.92;12.95;;;;;;;16.71;82.16;102076.78;4968563;28;20026;-73
2022/05/17 07:57:15;;;;;;;24.48;13.70;;;;;;;16.74;82.33;102078.59;4971821;28;20077;-73
2022/05/17 07:59:41;;;;;;;20.40;13.10;;;;;;;16.77;81.78;102073.38;4955251;28;20023;-73
2022/05/17 08:02:06;;;;;;;19.23;12.18;;;;;;;16.77;81.12;102071.66;4962654;28;20536;-73
2022/05/17 08:04:32;;;;;;;18.77;12.13;;;;;;;16.82;82.42;102072.59;4958838;28;20047;-75
2022/05/17 08:06:58;;;;;;;21.13;11.02;;;;;;;16.88;79.64;102066.59;4971260;28;20061;-76
2022/05/17 08:09:23;;;;;;;25.40;13.05;;;;;;;16.90;82.81;102074.50;4961208;28;20405;-76
2022/05/17 08:11:50;;;;;;;21.60;12.23;;;;;;;16.93;82.49;102077.19;4972780;28;20054;-76
2022/05/17 08:14:15;;;;;;;17.83;11.40;;;;;;;16.97;82.03;102073.75;4963975;28;20443;-76
2022/05/17 08:16:42;;;;;;;22.00;12.27;;;;;;;17.00;82.83;102079.06;4973616;28;20038;-77
2022/05/17 08:19:08;;;;;;;23.35;11.90;;;;;;;17.03;79.65;102080.03;4970000;28;20023;-76
2022/05/17 08:21:34;;;;;;;18.63;9.82;;;;;;;17.04;77.97;102080.91;4966843;28;20109;-74
2022/05/17 08:23:59;;;;;;;22.27;11.90;;;;;;;17.03;79.48;102081.75;4966189;28;20031;-74
2022/05/17 08:29:09;;;;;;;20.70;11.60;;;;;;;17.09;80.42;102083.59;4958127;28;20041;-74
2022/05/17 08:31:34;;;;;;;23.13;12.18;;;;;;;17.10;80.80;102081.00;4954334;28;20151;-72
2022/05/17 08:34:00;;;;;;;22.50;12.32;;;;;;;17.14;79.94;102081.94;4960391;28;20543;-72
2022/05/17 08:36:25;;;;;;;21.55;12.60;;;;;;;17.15;82.45;102076.69;4958607;28;20109;-72
2022/05/17 08:38:51;;;;;;;21.38;12.15;;;;;;;17.17;80.68;102076.72;4963282;28;20035;-72
2022/05/17 08:41:26;;;;;;;20.77;11.93;;;;;;;17.18;81.67;102078.50;4967350;28;20026;-72
2022/05/17 08:44:06;;;;;;;20.67;11.52;;;;;;;17.19;80.47;102081.16;4957834;28;20031;-72
2022/05/17 08:46:53;;;;;;;23.08;12.48;;;;;;;17.23;80.47;102086.47;4944743;28;20494;-72
2022/05/17 08:49:23;;;;;;;21.38;12.45;;;;;;;17.21;79.57;102078.56;4959769;28;20077;-72
2022/05/17 08:51:54;;;;;;;21.48;12.13;;;;;;;17.23;81.31;102068.91;4956816;28;20035;-72
2022/05/17 08:54:25;;;;;;;21.42;13.38;;;;;;;17.25;81.24;102069.84;4971716;28;20043;-72
2022/05/17 08:57:00;;;;;;;20.58;12.65;;;;;;;17.25;79.47;102066.28;4965769;28;20031;-72
2022/05/17 08:59:26;;;;;;;16.98;12.00;;;;;;;17.27;80.75;102072.50;4960122;28;20027;-72
2022/05/17 09:02:01;;;;;;;25.75;14.05;;;;;;;17.27;80.85;102069.88;4974740;28;20042;-72
2022/05/17 09:04:50;;;;;;;21.08;13.65;;;;;;;17.28;80.65;102064.63;4953975;28;20549;-72
2022/05/17 09:07:26;;;;;;;22.88;12.93;;;;;;;17.31;81.32;102063.78;4949297;28;20047;-72
2022/05/17 09:10:19;;;;;;;27.88;13.68;;;;;;;17.33;81.54;102068.19;4966209;28;20110;-72
2022/05/17 09:13:37;;;;;;;23.25;13.07;;;;;;;17.36;80.28;102068.22;4946839;28;20027;-73
2022/05/17 09:16:02;;;;;;;22.77;12.60;;;;;;;17.40;81.42;102061.28;4956535;28;20046;-72
2022/05/17 09:18:30;;;;;;;19.33;12.30;;;;;;;17.41;79.55;102063.06;4963376;28;20036;-72
2022/05/17 09:20:55;;;;;;;20.73;11.77;;;;;;;17.47;80.65;102059.63;4961321;28;20035;-72
2022/05/17 09:23:21;;;;;;;20.85;12.65;;;;;;;17.50;79.99;102049.13;4966679;28;20544;-72
2022/05/17 09:26:08;;;;;;;19.70;11.48;;;;;;;17.54;79.91;102049.19;4972848;28;20027;-72
2022/05/17 09:29:04;;;;;;;18.10;11.85;;;;;;;17.58;79.70;102051.88;4964031;28;20027;-72
2022/05/17 09:31:35;;;;;;;18.75;12.10;;;;;;;17.63;80.15;102044.91;4957516;28;20556;-72
2022/05/17 09:34:06;;;;;;;19.52;11.60;;;;;;;17.66;80.13;102042.31;4968904;28;20398;-72
2022/05/17 09:36:48;;;;;;;21.55;11.00;;;;;;;17.69;78.85;102042.34;4954103;28;20063;-72
2022/05/17 09:39:19;;;;;;;16.65;10.30;;;;;;;17.72;78.80;102038.00;4955753;28;20135;-71
2022/05/17 09:41:44;;;;;;;19.83;10.95;;;;;;;17.81;78.85;102047.78;4953797;28;20035;-72
2022/05/17 09:44:13;;;;;;;16.75;10.30;;;;;;;17.85;78.04;102043.44;4973942;28;20073;-72
2022/05/17 09:46:46;;;;;;;16.88;10.15;;;;;;;17.92;78.76;102042.69;4968191;28;20074;-72
2022/05/17 09:52:33;;;;;;;16.83;9.10;;;;;;;18.16;76.83;102041.19;4960038;28;20565;-72
2022/05/17 09:55:13;;;;;;;17.95;8.50;;;;;;;18.29;76.47;102032.53;4963462;28;20120;-72
2022/05/17 09:57:50;;;;;;;14.48;8.43;;;;;;;18.38;75.81;102037.94;4970512;28;20023;-72
2022/05/17 10:00:23;;;;;;;13.80;8.60;;;;;;;18.47;74.07;102029.22;4970920;28;20045;-72
2022/05/17 10:02:49;;;;;;;17.27;9.50;;;;;;;18.54;72.40;102027.53;4966319;28;20034;-72
2022/05/17 10:05:31;;;;;;;15.15;7.93;;;;;;;18.63;73.25;102024.97;4963394;28;20054;-72
2022/05/17 10:08:00;;;;;;;15.10;8.40;;;;;;;18.69;71.65;102021.50;4953640;28;20043;-72
2022/05/17 10:10:27;;;;;;;15.90;9.13;;;;;;;18.73;72.96;102012.75;4965477;28;20034;-72
2022/05/17 10:12:56;;;;;;;15.82;9.00;;;;;;;18.81;72.00;102020.72;4960500;28;20031;-72
2022/05/17 10:15:24;;;;;;;12.70;8.00;;;;;;;18.89;71.16;102008.50;4972465;28;20035;-72
2022/05/17 10:17:55;;;;;;;14.57;8.48;;;;;;;18.94;71.96;102007.66;4965159;28;20036;-72
2022/05/17 10:20:29;;;;;;;12.15;8.07;;;;;;;19.04;71.17;102002.44;4970904;28;20027;-72
2022/05/17 10:22:54;;;;;;;15.07;8.20;;;;;;;19.07;70.34;102002.47;4969068;28;20023;-72
2022/05/17 10:25:41;;;;;;;14.52;8.25;;;;;;;19.13;72.63;102001.63;4949632;28;20635;-72
2022/05/17 10:28:26;;;;;;;14.43;8.27;;;;;;;19.17;72.15;101999.00;4955967;28;20030;-72
2022/05/17 10:30:57;;;;;;;17.45;8.85;;;;;;;19.19;70.25;101992.00;4962876;28;20023;-71
2022/05/17 10:33:46;;;;;;;19.67;9.13;;;;;;;19.20;69.28;101996.38;4957130;28;20478;-72
2022/05/17 10:36:34;;;;;;;17.08;7.85;;;;;;;19.21;68.86;101990.22;4972901;28;20034;-72
2022/05/17 10:39:14;;;;;;;15.18;8.82;;;;;;;19.27;68.19;102000.81;4964635;28;20031;-72
2022/05/17 10:41:39;;;;;;;16.45;8.40;;;;;;;19.33;68.49;101993.81;4964036;28;20485;-71
2022/05/17 10:44:05;;;;;;;15.10;8.60;;;;;;;19.37;66.43;101990.31;4954478;28;20031;-72
2022/05/17 10:46:37;;;;;;;14.60;8.70;;;;;;;19.42;66.02;101997.41;4972623;28;20026;-71
2022/05/17 10:49:31;;;;;;;15.38;9.15;;;;;;;19.49;67.36;102002.72;4968634;28;20031;-71
2022/05/17 10:52:09;;;;;;;19.05;9.73;;;;;;;19.55;65.49;101994.81;4962662;28;20134;-72
2022/05/17 10:55:05;;;;;;;16.10;8.93;;;;;;;19.65;66.67;101991.31;4972363;28;20402;-72
2022/05/17 10:57:40;;;;;;;19.40;10.27;;;;;;;19.67;66.25;101988.69;4956317;28;20038;-71
2022/05/17 11:00:14;;;;;;;18.08;9.70;;;;;;;19.71;66.03;101993.13;4951297;28;20031;-72
2022/05/17 11:02:57;;;;;;;16.60;9.40;;;;;;;19.85;66.24;101987.94;4959752;28;20033;-72
2022/05/17 11:05:54;;;;;;;16.00;9.30;;;;;;;19.98;65.75;101987.94;4963591;28;20047;-72
2022/05/17 11:08:22;;;;;;;15.77;9.10;;;;;;;20.08;64.32;101983.56;4957933;28;20093;-72
2022/05/17 11:11:26;;;;;;;14.77;8.87;;;;;;;20.15;65.54;101976.53;4949705;28;20039;-77
2022/05/17 11:13:58;;;;;;;15.77;8.98;;;;;;;20.24;65.82;101981.84;4910071;29;20042;-72
2022/05/17 11:16:40;;;;;;;13.52;8.02;;;;;;;20.27;64.50;101971.25;4952351;28;20051;-72
2022/05/17 11:19:27;;;;;;;20.05;7.88;;;;;;;20.37;64.62;101966.00;4958440;28;20034;-73
2022/05/17 11:22:03;;;;;;;12.38;7.03;;;;;;;20.50;63.77;101963.31;4961510;28;20030;-72
2022/05/17 11:24:40;;;;;;;14.00;7.47;;;;;;;20.61;64.03;101947.47;4955682;28;20122;-73
2022/05/17 11:27:20;;;;;;;13.93;7.05;;;;;;;20.70;62.56;101946.59;4954347;28;20113;-72
2022/05/17 11:30:04;;;;;;;15.55;6.95;;;;;;;20.80;62.83;101944.84;4968968;28;20027;-72